sensor_id;sensor_type;location;lat;lon;timestamp;temperature;humidity
5711;DHT22;61291;52.524;13.422;2022-08-01T00:01:34;21.80;80.50
5711;DHT22;61291;52.524;13.422;2022-08-01T00:04:00;21.80;80.80
5711;DHT22;61291;52.524;13.422;2022-08-01T00:06:25;21.80;81.20
5711;DHT22;61291;52.524;13.422;2022-08-01T00:08:51;21.80;81.10
5711;DHT22;61291;52.524;13.422;2022-08-01T00:11:16;21.70;81.10
5711;DHT22;61291;52.524;13.422;2022-08-01T00:13:42;21.70;81.30
5711;DHT22;61291;52.524;13.422;2022-08-01T00:16:08;21.70;82.30
5711;DHT22;61291;52.524;13.422;2022-08-01T00:18:33;21.60;82.50
5711;DHT22;61291;52.524;13.422;2022-08-01T00:21:01;21.60;82.70
5711;DHT22;61291;52.524;13.422;2022-08-01T00:23:27;21.60;83.10
5711;DHT22;61291;52.524;13.422;2022-08-01T00:25:52;21.50;83.30
5711;DHT22;61291;52.524;13.422;2022-08-01T00:28:18;21.50;84.30
5711;DHT22;61291;52.524;13.422;2022-08-01T00:30:43;21.50;85.50
5711;DHT22;61291;52.524;13.422;2022-08-01T00:33:09;21.50;85.80
5711;DHT22;61291;52.524;13.422;2022-08-01T00:35:34;21.40;86.00
5711;DHT22;61291;52.524;13.422;2022-08-01T00:38:00;21.40;86.50
5711;DHT22;61291;52.524;13.422;2022-08-01T00:40:25;21.30;88.10
5711;DHT22;61291;52.524;13.422;2022-08-01T00:42:51;21.30;88.90
5711;DHT22;61291;52.524;13.422;2022-08-01T00:45:16;21.30;89.30
5711;DHT22;61291;52.524;13.422;2022-08-01T00:47:42;21.30;90.80
5711;DHT22;61291;52.524;13.422;2022-08-01T00:50:08;21.20;91.10
5711;DHT22;61291;52.524;13.422;2022-08-01T00:52:38;21.10;92.00
5711;DHT22;61291;52.524;13.422;2022-08-01T00:55:04;21.00;93.00
5711;DHT22;61291;52.524;13.422;2022-08-01T00:57:30;20.90;93.50
5711;DHT22;61291;52.524;13.422;2022-08-01T00:59:56;20.80;94.20
5711;DHT22;61291;52.524;13.422;2022-08-01T01:02:21;20.80;94.70
5711;DHT22;61291;52.524;13.422;2022-08-01T01:04:47;20.70;95.20
5711;DHT22;61291;52.524;13.422;2022-08-01T01:07:31;20.70;95.60
5711;DHT22;61291;52.524;13.422;2022-08-01T01:10:02;20.70;96.30
5711;DHT22;61291;52.524;13.422;2022-08-01T01:12:31;20.60;96.00
5711;DHT22;61291;52.524;13.422;2022-08-01T01:18:13;20.60;97.10
5711;DHT22;61291;52.524;13.422;2022-08-01T01:20:44;20.50;97.50
5711;DHT22;61291;52.524;13.422;2022-08-01T01:23:29;20.60;97.40
5711;DHT22;61291;52.524;13.422;2022-08-01T01:29:23;20.70;97.50
5711;DHT22;61291;52.524;13.422;2022-08-01T01:32:19;20.70;97.40
5711;DHT22;61291;52.524;13.422;2022-08-01T01:34:48;20.70;97.70
5711;DHT22;61291;52.524;13.422;2022-08-01T01:37:17;20.70;97.20
5711;DHT22;61291;52.524;13.422;2022-08-01T01:39:44;20.70;97.30
5711;DHT22;61291;52.524;13.422;2022-08-01T01:42:11;20.70;97.40
5711;DHT22;61291;52.524;13.422;2022-08-01T01:44:38;20.60;97.40
5711;DHT22;61291;52.524;13.422;2022-08-01T01:47:05;20.70;97.50
5711;DHT22;61291;52.524;13.422;2022-08-01T01:49:32;20.70;97.70
5711;DHT22;61291;52.524;13.422;2022-08-01T01:51:59;20.70;97.90
5711;DHT22;61291;52.524;13.422;2022-08-01T01:54:30;20.60;97.70
5711;DHT22;61291;52.524;13.422;2022-08-01T01:56:58;20.60;98.20
5711;DHT22;61291;52.524;13.422;2022-08-01T01:59:27;20.50;98.20
5711;DHT22;61291;52.524;13.422;2022-08-01T02:01:55;20.40;98.20
5711;DHT22;61291;52.524;13.422;2022-08-01T02:04:23;20.40;99.10
5711;DHT22;61291;52.524;13.422;2022-08-01T02:06:50;20.30;99.10
5711;DHT22;61291;52.524;13.422;2022-08-01T02:09:18;20.20;99.10
5711;DHT22;61291;52.524;13.422;2022-08-01T02:11:46;20.10;99.30
5711;DHT22;61291;52.524;13.422;2022-08-01T02:14:13;20.00;99.60
5711;DHT22;61291;52.524;13.422;2022-08-01T02:16:41;20.00;99.90
5711;DHT22;61291;52.524;13.422;2022-08-01T02:19:08;20.00;99.90
5711;DHT22;61291;52.524;13.422;2022-08-01T02:21:55;19.90;99.90
5711;DHT22;61291;52.524;13.422;2022-08-01T02:24:37;19.80;99.90
5711;DHT22;61291;52.524;13.422;2022-08-01T02:27:09;19.80;99.90
5711;DHT22;61291;52.524;13.422;2022-08-01T02:29:42;19.70;99.90
5711;DHT22;61291;52.524;13.422;2022-08-01T02:32:12;19.60;99.90
5711;DHT22;61291;52.524;13.422;2022-08-01T02:34:40;19.50;99.90
5711;DHT22;61291;52.524;13.422;2022-08-01T02:37:06;19.50;99.90
5711;DHT22;61291;52.524;13.422;2022-08-01T02:39:35;19.40;99.90
5711;DHT22;61291;52.524;13.422;2022-08-01T02:42:04;19.30;99.90
5711;DHT22;61291;52.524;13.422;2022-08-01T02:44:33;19.30;99.90
5711;DHT22;61291;52.524;13.422;2022-08-01T02:47:01;19.20;99.90
5711;DHT22;61291;52.524;13.422;2022-08-01T02:49:31;19.20;99.90
5711;DHT22;61291;52.524;13.422;2022-08-01T02:51:59;19.20;99.90
5711;DHT22;61291;52.524;13.422;2022-08-01T02:54:26;19.20;99.90
5711;DHT22;61291;52.524;13.422;2022-08-01T02:56:53;19.20;99.90
5711;DHT22;61291;52.524;13.422;2022-08-01T02:59:22;19.30;99.90
5711;DHT22;61291;52.524;13.422;2022-08-01T03:01:53;19.30;99.90
5711;DHT22;61291;52.524;13.422;2022-08-01T03:04:20;19.30;99.90
5711;DHT22;61291;52.524;13.422;2022-08-01T03:06:48;19.20;99.90
5711;DHT22;61291;52.524;13.422;2022-08-01T03:09:14;19.10;99.90
5711;DHT22;61291;52.524;13.422;2022-08-01T03:11:42;19.10;99.90
5711;DHT22;61291;52.524;13.422;2022-08-01T03:14:09;19.10;99.90
5711;DHT22;61291;52.524;13.422;2022-08-01T03:16:38;19.10;99.90
5711;DHT22;61291;52.524;13.422;2022-08-01T03:19:06;19.10;99.90
5711;DHT22;61291;52.524;13.422;2022-08-01T03:21:32;19.10;99.90
5711;DHT22;61291;52.524;13.422;2022-08-01T03:24:01;19.10;99.90
5711;DHT22;61291;52.524;13.422;2022-08-01T03:26:32;19.20;99.90
5711;DHT22;61291;52.524;13.422;2022-08-01T03:29:04;19.20;99.90
5711;DHT22;61291;52.524;13.422;2022-08-01T03:31:36;19.30;99.90
5711;DHT22;61291;52.524;13.422;2022-08-01T03:34:03;19.40;99.90
5711;DHT22;61291;52.524;13.422;2022-08-01T03:36:31;19.50;99.90
5711;DHT22;61291;52.524;13.422;2022-08-01T03:39:00;19.60;99.90
5711;DHT22;61291;52.524;13.422;2022-08-01T03:41:32;19.60;99.90
5711;DHT22;61291;52.524;13.422;2022-08-01T03:44:03;19.60;99.90
5711;DHT22;61291;52.524;13.422;2022-08-01T03:46:42;19.70;99.90
5711;DHT22;61291;52.524;13.422;2022-08-01T03:49:16;19.90;99.90
5711;DHT22;61291;52.524;13.422;2022-08-01T03:51:45;20.00;99.90
5711;DHT22;61291;52.524;13.422;2022-08-01T03:54:14;20.20;99.90
5711;DHT22;61291;52.524;13.422;2022-08-01T03:56:41;20.30;99.90
5711;DHT22;61291;52.524;13.422;2022-08-01T03:59:09;20.40;99.90
5711;DHT22;61291;52.524;13.422;2022-08-01T04:01:35;20.50;99.90
5711;DHT22;61291;52.524;13.422;2022-08-01T04:04:01;20.50;99.90
5711;DHT22;61291;52.524;13.422;2022-08-01T04:06:27;20.70;99.90
5711;DHT22;61291;52.524;13.422;2022-08-01T04:08:53;20.80;99.90
5711;DHT22;61291;52.524;13.422;2022-08-01T04:11:26;20.80;99.90
5711;DHT22;61291;52.524;13.422;2022-08-01T04:13:53;20.90;99.90
5711;DHT22;61291;52.524;13.422;2022-08-01T04:16:20;20.90;99.90
5711;DHT22;61291;52.524;13.422;2022-08-01T04:18:46;20.90;99.90
5711;DHT22;61291;52.524;13.422;2022-08-01T04:21:12;20.90;99.90
5711;DHT22;61291;52.524;13.422;2022-08-01T04:23:40;20.90;99.90
5711;DHT22;61291;52.524;13.422;2022-08-01T04:26:07;21.00;99.90
5711;DHT22;61291;52.524;13.422;2022-08-01T04:28:36;21.00;99.90
5711;DHT22;61291;52.524;13.422;2022-08-01T04:31:05;21.00;99.90
5711;DHT22;61291;52.524;13.422;2022-08-01T04:33:32;21.10;99.90
5711;DHT22;61291;52.524;13.422;2022-08-01T04:36:02;21.20;99.90
5711;DHT22;61291;52.524;13.422;2022-08-01T04:38:31;21.40;99.90
5711;DHT22;61291;52.524;13.422;2022-08-01T04:40:57;21.70;99.90
5711;DHT22;61291;52.524;13.422;2022-08-01T04:43:23;21.90;99.90
5711;DHT22;61291;52.524;13.422;2022-08-01T04:45:50;21.90;99.90
5711;DHT22;61291;52.524;13.422;2022-08-01T04:48:17;21.90;99.90
5711;DHT22;61291;52.524;13.422;2022-08-01T04:50:45;21.80;99.90
5711;DHT22;61291;52.524;13.422;2022-08-01T04:53:19;21.80;99.90
5711;DHT22;61291;52.524;13.422;2022-08-01T04:55:47;21.70;99.90
5711;DHT22;61291;52.524;13.422;2022-08-01T04:58:14;21.80;99.90
5711;DHT22;61291;52.524;13.422;2022-08-01T05:00:39;21.70;99.90
5711;DHT22;61291;52.524;13.422;2022-08-01T05:03:05;21.70;99.90
5711;DHT22;61291;52.524;13.422;2022-08-01T05:05:30;21.60;99.90
5711;DHT22;61291;52.524;13.422;2022-08-01T05:07:57;21.50;99.90
5711;DHT22;61291;52.524;13.422;2022-08-01T05:10:22;21.50;99.90
5711;DHT22;61291;52.524;13.422;2022-08-01T05:12:48;21.40;99.90
5711;DHT22;61291;52.524;13.422;2022-08-01T05:15:13;21.40;99.90
5711;DHT22;61291;52.524;13.422;2022-08-01T05:17:39;21.30;99.90
5711;DHT22;61291;52.524;13.422;2022-08-01T05:20:05;21.20;99.90
5711;DHT22;61291;52.524;13.422;2022-08-01T05:22:31;21.10;99.90
5711;DHT22;61291;52.524;13.422;2022-08-01T05:24:57;21.20;99.90
5711;DHT22;61291;52.524;13.422;2022-08-01T05:27:22;21.20;99.90
5711;DHT22;61291;52.524;13.422;2022-08-01T05:29:48;21.10;99.90
5711;DHT22;61291;52.524;13.422;2022-08-01T05:32:13;21.20;99.90
5711;DHT22;61291;52.524;13.422;2022-08-01T05:34:39;21.30;99.90
5711;DHT22;61291;52.524;13.422;2022-08-01T05:37:04;21.50;99.90
5711;DHT22;61291;52.524;13.422;2022-08-01T05:39:30;21.80;99.90
5711;DHT22;61291;52.524;13.422;2022-08-01T05:41:55;21.90;99.90
5711;DHT22;61291;52.524;13.422;2022-08-01T05:44:21;22.00;99.90
5711;DHT22;61291;52.524;13.422;2022-08-01T05:46:47;22.20;99.90
5711;DHT22;61291;52.524;13.422;2022-08-01T05:49:12;22.30;99.90
5711;DHT22;61291;52.524;13.422;2022-08-01T05:51:38;22.50;99.90
5711;DHT22;61291;52.524;13.422;2022-08-01T05:54:04;22.60;99.90
5711;DHT22;61291;52.524;13.422;2022-08-01T05:56:30;22.70;99.90
5711;DHT22;61291;52.524;13.422;2022-08-01T05:58:55;23.00;99.90
5711;DHT22;61291;52.524;13.422;2022-08-01T06:01:21;23.20;99.90
5711;DHT22;61291;52.524;13.422;2022-08-01T06:03:46;23.40;99.90
5711;DHT22;61291;52.524;13.422;2022-08-01T06:06:12;23.40;99.90
5711;DHT22;61291;52.524;13.422;2022-08-01T06:08:39;23.40;99.90
5711;DHT22;61291;52.524;13.422;2022-08-01T06:11:05;23.40;99.90
5711;DHT22;61291;52.524;13.422;2022-08-01T06:13:30;23.30;99.90
5711;DHT22;61291;52.524;13.422;2022-08-01T06:15:56;23.30;99.90
5711;DHT22;61291;52.524;13.422;2022-08-01T06:18:22;23.30;99.90
5711;DHT22;61291;52.524;13.422;2022-08-01T06:20:47;23.40;99.90
5711;DHT22;61291;52.524;13.422;2022-08-01T06:23:14;23.40;99.90
5711;DHT22;61291;52.524;13.422;2022-08-01T06:25:42;23.10;99.90
5711;DHT22;61291;52.524;13.422;2022-08-01T06:28:07;22.90;99.90
5711;DHT22;61291;52.524;13.422;2022-08-01T06:30:33;22.80;99.90
5711;DHT22;61291;52.524;13.422;2022-08-01T06:32:58;22.80;99.90
5711;DHT22;61291;52.524;13.422;2022-08-01T06:35:26;22.60;99.90
5711;DHT22;61291;52.524;13.422;2022-08-01T06:37:51;22.60;99.90
5711;DHT22;61291;52.524;13.422;2022-08-01T06:40:17;22.50;99.90
5711;DHT22;61291;52.524;13.422;2022-08-01T06:42:44;22.90;99.90
5711;DHT22;61291;52.524;13.422;2022-08-01T06:45:11;24.70;99.90
5711;DHT22;61291;52.524;13.422;2022-08-01T06:47:38;25.10;98.60
5711;DHT22;61291;52.524;13.422;2022-08-01T06:50:05;25.10;97.70
5711;DHT22;61291;52.524;13.422;2022-08-01T06:52:31;25.50;97.20
5711;DHT22;61291;52.524;13.422;2022-08-01T06:54:57;25.60;95.90
5711;DHT22;61291;52.524;13.422;2022-08-01T06:57:22;25.20;95.30
5711;DHT22;61291;52.524;13.422;2022-08-01T06:59:48;25.00;94.80
5711;DHT22;61291;52.524;13.422;2022-08-01T07:02:14;24.70;95.30
5711;DHT22;61291;52.524;13.422;2022-08-01T07:04:39;24.70;95.20
5711;DHT22;61291;52.524;13.422;2022-08-01T07:07:05;24.50;95.30
5711;DHT22;61291;52.524;13.422;2022-08-01T07:09:30;24.00;95.80
5711;DHT22;61291;52.524;13.422;2022-08-01T07:11:56;23.30;97.10
5711;DHT22;61291;52.524;13.422;2022-08-01T07:14:22;22.70;98.50
5711;DHT22;61291;52.524;13.422;2022-08-01T07:16:47;22.70;98.80
5711;DHT22;61291;52.524;13.422;2022-08-01T07:19:13;22.60;99.70
5711;DHT22;61291;52.524;13.422;2022-08-01T07:21:39;22.50;99.90
5711;DHT22;61291;52.524;13.422;2022-08-01T07:24:06;22.70;99.90
5711;DHT22;61291;52.524;13.422;2022-08-01T07:26:31;23.10;99.40
5711;DHT22;61291;52.524;13.422;2022-08-01T07:28:57;23.30;98.90
5711;DHT22;61291;52.524;13.422;2022-08-01T07:31:23;23.20;98.50
5711;DHT22;61291;52.524;13.422;2022-08-01T07:33:49;23.00;99.00
5711;DHT22;61291;52.524;13.422;2022-08-01T07:36:16;22.50;99.60
5711;DHT22;61291;52.524;13.422;2022-08-01T07:38:41;22.20;99.90
5711;DHT22;61291;52.524;13.422;2022-08-01T07:41:07;22.20;99.90
5711;DHT22;61291;52.524;13.422;2022-08-01T07:43:32;22.10;99.90
5711;DHT22;61291;52.524;13.422;2022-08-01T07:45:58;22.00;99.90
5711;DHT22;61291;52.524;13.422;2022-08-01T07:48:23;22.20;99.90
5711;DHT22;61291;52.524;13.422;2022-08-01T07:50:50;22.80;99.90
5711;DHT22;61291;52.524;13.422;2022-08-01T07:53:16;23.40;99.90
5711;DHT22;61291;52.524;13.422;2022-08-01T07:55:42;24.40;99.40
5711;DHT22;61291;52.524;13.422;2022-08-01T07:58:07;25.30;97.80
5711;DHT22;61291;52.524;13.422;2022-08-01T08:00:33;25.60;95.10
5711;DHT22;61291;52.524;13.422;2022-08-01T08:02:58;25.00;94.30
5711;DHT22;61291;52.524;13.422;2022-08-01T08:05:28;24.30;94.50
5711;DHT22;61291;52.524;13.422;2022-08-01T08:07:53;23.80;95.00
5711;DHT22;61291;52.524;13.422;2022-08-01T08:10:19;23.30;95.90
5711;DHT22;61291;52.524;13.422;2022-08-01T08:12:44;23.10;96.30
5711;DHT22;61291;52.524;13.422;2022-08-01T08:15:12;22.80;97.10
5711;DHT22;61291;52.524;13.422;2022-08-01T08:17:37;22.60;97.20
5711;DHT22;61291;52.524;13.422;2022-08-01T08:20:05;22.60;97.50
5711;DHT22;61291;52.524;13.422;2022-08-01T08:22:31;22.40;98.00
5711;DHT22;61291;52.524;13.422;2022-08-01T08:24:56;22.40;98.60
5711;DHT22;61291;52.524;13.422;2022-08-01T08:27:22;22.40;99.20
5711;DHT22;61291;52.524;13.422;2022-08-01T08:29:47;22.80;98.70
5711;DHT22;61291;52.524;13.422;2022-08-01T08:32:13;23.40;98.00
5711;DHT22;61291;52.524;13.422;2022-08-01T08:34:38;24.10;97.00
5711;DHT22;61291;52.524;13.422;2022-08-01T08:37:04;24.80;96.00
5711;DHT22;61291;52.524;13.422;2022-08-01T08:39:29;24.90;94.30
5711;DHT22;61291;52.524;13.422;2022-08-01T08:41:58;24.80;93.80
5711;DHT22;61291;52.524;13.422;2022-08-01T08:44:24;25.00;92.70
5711;DHT22;61291;52.524;13.422;2022-08-01T08:46:51;25.30;92.80
5711;DHT22;61291;52.524;13.422;2022-08-01T08:49:20;25.80;92.10
5711;DHT22;61291;52.524;13.422;2022-08-01T08:51:49;26.10;91.50
5711;DHT22;61291;52.524;13.422;2022-08-01T08:54:16;25.90;90.90
5711;DHT22;61291;52.524;13.422;2022-08-01T08:56:43;25.30;90.40
5711;DHT22;61291;52.524;13.422;2022-08-01T08:59:12;24.80;91.10
5711;DHT22;61291;52.524;13.422;2022-08-01T09:01:41;24.50;91.50
5711;DHT22;61291;52.524;13.422;2022-08-01T09:04:07;24.50;91.40
5711;DHT22;61291;52.524;13.422;2022-08-01T09:06:33;24.80;91.10
5711;DHT22;61291;52.524;13.422;2022-08-01T09:08:59;25.30;90.70
5711;DHT22;61291;52.524;13.422;2022-08-01T09:11:25;26.30;89.70
5711;DHT22;61291;52.524;13.422;2022-08-01T09:14:14;27.10;86.90
5711;DHT22;61291;52.524;13.422;2022-08-01T09:16:42;28.20;83.50
5711;DHT22;61291;52.524;13.422;2022-08-01T09:19:16;28.60;82.00
5711;DHT22;61291;52.524;13.422;2022-08-01T09:22:00;28.40;76.30
5711;DHT22;61291;52.524;13.422;2022-08-01T09:24:27;26.90;77.80
5711;DHT22;61291;52.524;13.422;2022-08-01T09:26:54;26.60;80.30
5711;DHT22;61291;52.524;13.422;2022-08-01T09:29:28;26.70;80.80
5711;DHT22;61291;52.524;13.422;2022-08-01T09:31:54;27.00;80.60
5711;DHT22;61291;52.524;13.422;2022-08-01T09:34:29;27.60;79.90
5711;DHT22;61291;52.524;13.422;2022-08-01T09:37:00;27.10;78.10
5711;DHT22;61291;52.524;13.422;2022-08-01T09:39:31;26.80;80.30
5711;DHT22;61291;52.524;13.422;2022-08-01T09:41:59;26.50;80.80
5711;DHT22;61291;52.524;13.422;2022-08-01T09:44:44;26.10;82.00
5711;DHT22;61291;52.524;13.422;2022-08-01T09:47:10;25.30;84.10
5711;DHT22;61291;52.524;13.422;2022-08-01T09:49:38;25.10;84.40
5711;DHT22;61291;52.524;13.422;2022-08-01T09:52:15;25.10;85.30
5711;DHT22;61291;52.524;13.422;2022-08-01T09:54:52;25.40;85.90
5711;DHT22;61291;52.524;13.422;2022-08-01T09:57:19;25.60;85.40
5711;DHT22;61291;52.524;13.422;2022-08-01T09:59:48;26.20;83.70
5711;DHT22;61291;52.524;13.422;2022-08-01T10:02:27;26.30;83.40
5711;DHT22;61291;52.524;13.422;2022-08-01T10:04:53;26.40;82.70
5711;DHT22;61291;52.524;13.422;2022-08-01T10:07:19;26.30;82.80
5711;DHT22;61291;52.524;13.422;2022-08-01T10:09:46;26.20;83.20
5711;DHT22;61291;52.524;13.422;2022-08-01T10:12:18;26.10;83.30
5711;DHT22;61291;52.524;13.422;2022-08-01T10:14:45;26.10;83.40
5711;DHT22;61291;52.524;13.422;2022-08-01T10:17:15;25.80;83.90
5711;DHT22;61291;52.524;13.422;2022-08-01T10:19:42;25.60;84.10
5711;DHT22;61291;52.524;13.422;2022-08-01T10:22:10;25.80;84.20
5711;DHT22;61291;52.524;13.422;2022-08-01T10:24:37;25.80;84.10
5711;DHT22;61291;52.524;13.422;2022-08-01T10:27:08;25.60;84.30
5711;DHT22;61291;52.524;13.422;2022-08-01T10:32:09;25.40;85.20
5711;DHT22;61291;52.524;13.422;2022-08-01T10:34:36;25.20;85.60
5711;DHT22;61291;52.524;13.422;2022-08-01T10:37:03;25.10;86.20
5711;DHT22;61291;52.524;13.422;2022-08-01T10:39:31;25.20;86.10
5711;DHT22;61291;52.524;13.422;2022-08-01T10:41:56;25.70;85.80
5711;DHT22;61291;52.524;13.422;2022-08-01T10:44:24;26.20;84.70
5711;DHT22;61291;52.524;13.422;2022-08-01T10:46:54;26.20;84.00
5711;DHT22;61291;52.524;13.422;2022-08-01T10:49:22;26.80;83.10
5711;DHT22;61291;52.524;13.422;2022-08-01T10:51:50;27.00;82.50
5711;DHT22;61291;52.524;13.422;2022-08-01T10:54:15;26.60;82.00
5711;DHT22;61291;52.524;13.422;2022-08-01T10:56:49;26.40;82.00
5711;DHT22;61291;52.524;13.422;2022-08-01T10:59:36;25.70;83.60
5711;DHT22;61291;52.524;13.422;2022-08-01T11:02:30;25.80;83.60
5711;DHT22;61291;52.524;13.422;2022-08-01T11:05:02;26.30;82.70
5711;DHT22;61291;52.524;13.422;2022-08-01T11:07:46;26.90;81.80
5711;DHT22;61291;52.524;13.422;2022-08-01T11:10:27;27.00;80.80
5711;DHT22;61291;52.524;13.422;2022-08-01T11:12:54;27.50;79.80
5711;DHT22;61291;52.524;13.422;2022-08-01T11:15:21;28.00;78.10
5711;DHT22;61291;52.524;13.422;2022-08-01T11:17:54;27.80;77.80
5711;DHT22;61291;52.524;13.422;2022-08-01T11:20:27;27.60;77.70
5711;DHT22;61291;52.524;13.422;2022-08-01T11:25:26;25.70;81.40
5711;DHT22;61291;52.524;13.422;2022-08-01T11:30:40;23.60;90.00
5711;DHT22;61291;52.524;13.422;2022-08-01T11:33:05;23.00;92.70
5711;DHT22;61291;52.524;13.422;2022-08-01T11:35:32;22.60;94.10
5711;DHT22;61291;52.524;13.422;2022-08-01T11:38:24;22.50;94.80
5711;DHT22;61291;52.524;13.422;2022-08-01T11:41:17;22.40;95.30
5711;DHT22;61291;52.524;13.422;2022-08-01T11:44:04;23.20;94.50
5711;DHT22;61291;52.524;13.422;2022-08-01T11:46:48;24.10;93.70
5711;DHT22;61291;52.524;13.422;2022-08-01T11:52:10;25.40;91.30
5711;DHT22;61291;52.524;13.422;2022-08-01T11:54:48;26.10;89.80
5711;DHT22;61291;52.524;13.422;2022-08-01T11:57:15;27.10;86.10
5711;DHT22;61291;52.524;13.422;2022-08-01T11:59:53;27.60;84.80
5711;DHT22;61291;52.524;13.422;2022-08-01T12:02:24;28.50;82.60
5711;DHT22;61291;52.524;13.422;2022-08-01T12:04:59;29.30;78.60
5711;DHT22;61291;52.524;13.422;2022-08-01T12:07:26;29.40;77.00
5711;DHT22;61291;52.524;13.422;2022-08-01T12:10:10;29.00;75.70
5711;DHT22;61291;52.524;13.422;2022-08-01T12:12:46;29.10;75.70
5711;DHT22;61291;52.524;13.422;2022-08-01T12:15:12;30.10;74.90
5711;DHT22;61291;52.524;13.422;2022-08-01T12:17:46;30.90;73.00
5711;DHT22;61291;52.524;13.422;2022-08-01T12:20:15;31.30;71.40
5711;DHT22;61291;52.524;13.422;2022-08-01T12:22:41;30.00;71.10
5711;DHT22;61291;52.524;13.422;2022-08-01T12:25:15;29.70;71.60
5711;DHT22;61291;52.524;13.422;2022-08-01T12:27:42;28.70;73.10
5711;DHT22;61291;52.524;13.422;2022-08-01T12:30:13;27.90;74.10
5711;DHT22;61291;52.524;13.422;2022-08-01T12:32:40;27.20;76.30
5711;DHT22;61291;52.524;13.422;2022-08-01T12:35:07;26.80;78.20
5711;DHT22;61291;52.524;13.422;2022-08-01T12:40:23;28.20;77.30
5711;DHT22;61291;52.524;13.422;2022-08-01T12:42:50;28.80;74.90
5711;DHT22;61291;52.524;13.422;2022-08-01T12:45:19;29.40;74.20
5711;DHT22;61291;52.524;13.422;2022-08-01T12:47:46;29.60;72.90
5711;DHT22;61291;52.524;13.422;2022-08-01T12:50:16;29.20;73.00
5711;DHT22;61291;52.524;13.422;2022-08-01T12:52:43;28.80;74.30
5711;DHT22;61291;52.524;13.422;2022-08-01T12:55:23;29.10;73.80
5711;DHT22;61291;52.524;13.422;2022-08-01T12:58:07;28.70;73.30
5711;DHT22;61291;52.524;13.422;2022-08-01T13:00:34;29.00;72.70
5711;DHT22;61291;52.524;13.422;2022-08-01T13:03:11;29.10;72.00
5711;DHT22;61291;52.524;13.422;2022-08-01T13:05:54;28.60;72.60
5711;DHT22;61291;52.524;13.422;2022-08-01T13:08:25;28.90;72.10
5711;DHT22;61291;52.524;13.422;2022-08-01T13:11:11;27.60;73.80
5711;DHT22;61291;52.524;13.422;2022-08-01T13:13:51;26.80;75.70
5711;DHT22;61291;52.524;13.422;2022-08-01T13:16:19;26.50;76.30
5711;DHT22;61291;52.524;13.422;2022-08-01T13:18:50;26.20;77.60
5711;DHT22;61291;52.524;13.422;2022-08-01T13:21:17;25.70;79.30
5711;DHT22;61291;52.524;13.422;2022-08-01T13:26:46;25.90;80.30
5711;DHT22;61291;52.524;13.422;2022-08-01T13:29:17;26.00;80.60
5711;DHT22;61291;52.524;13.422;2022-08-01T13:31:43;26.40;80.10
5711;DHT22;61291;52.524;13.422;2022-08-01T13:34:09;26.30;80.10
5711;DHT22;61291;52.524;13.422;2022-08-01T13:36:36;26.40;80.00
5711;DHT22;61291;52.524;13.422;2022-08-01T13:39:02;26.70;79.90
5711;DHT22;61291;52.524;13.422;2022-08-01T13:41:47;26.60;79.50
5711;DHT22;61291;52.524;13.422;2022-08-01T13:44:13;26.50;79.10
5711;DHT22;61291;52.524;13.422;2022-08-01T13:46:40;26.40;78.70
5711;DHT22;61291;52.524;13.422;2022-08-01T13:49:06;26.00;79.10
5711;DHT22;61291;52.524;13.422;2022-08-01T13:51:33;25.80;79.40
5711;DHT22;61291;52.524;13.422;2022-08-01T13:53:59;25.50;80.00
5711;DHT22;61291;52.524;13.422;2022-08-01T13:56:24;25.20;81.80
5711;DHT22;61291;52.524;13.422;2022-08-01T13:58:52;24.90;83.00
5711;DHT22;61291;52.524;13.422;2022-08-01T14:01:17;25.00;83.40
5711;DHT22;61291;52.524;13.422;2022-08-01T14:03:43;25.00;83.70
5711;DHT22;61291;52.524;13.422;2022-08-01T14:06:08;25.10;83.80
5711;DHT22;61291;52.524;13.422;2022-08-01T14:08:34;25.50;83.50
5711;DHT22;61291;52.524;13.422;2022-08-01T14:10:59;26.10;82.70
5711;DHT22;61291;52.524;13.422;2022-08-01T14:13:28;26.50;82.70
5711;DHT22;61291;52.524;13.422;2022-08-01T14:15:54;26.70;82.20
5711;DHT22;61291;52.524;13.422;2022-08-01T14:18:19;26.60;82.50
5711;DHT22;61291;52.524;13.422;2022-08-01T14:20:45;27.50;81.00
5711;DHT22;61291;52.524;13.422;2022-08-01T14:23:10;27.60;80.10
5711;DHT22;61291;52.524;13.422;2022-08-01T14:25:37;27.60;79.90
5711;DHT22;61291;52.524;13.422;2022-08-01T14:28:04;27.40;79.90
5711;DHT22;61291;52.524;13.422;2022-08-01T14:30:29;27.40;80.00
5711;DHT22;61291;52.524;13.422;2022-08-01T14:32:55;27.70;79.30
5711;DHT22;61291;52.524;13.422;2022-08-01T14:35:20;28.00;78.40
5711;DHT22;61291;52.524;13.422;2022-08-01T14:37:46;28.70;77.30
5711;DHT22;61291;52.524;13.422;2022-08-01T14:40:11;29.10;76.10
5711;DHT22;61291;52.524;13.422;2022-08-01T14:42:38;29.20;74.50
5711;DHT22;61291;52.524;13.422;2022-08-01T14:45:05;29.00;74.30
5711;DHT22;61291;52.524;13.422;2022-08-01T14:47:35;27.80;76.60
5711;DHT22;61291;52.524;13.422;2022-08-01T14:50:00;28.10;76.70
5711;DHT22;61291;52.524;13.422;2022-08-01T14:52:26;28.00;76.60
5711;DHT22;61291;52.524;13.422;2022-08-01T14:54:51;27.60;77.30
5711;DHT22;61291;52.524;13.422;2022-08-01T14:57:17;27.00;78.90
5711;DHT22;61291;52.524;13.422;2022-08-01T14:59:43;26.90;79.00
5711;DHT22;61291;52.524;13.422;2022-08-01T15:02:09;26.30;80.50
5711;DHT22;61291;52.524;13.422;2022-08-01T15:04:36;25.80;81.90
5711;DHT22;61291;52.524;13.422;2022-08-01T15:07:01;25.40;83.80
5711;DHT22;61291;52.524;13.422;2022-08-01T15:09:27;25.70;83.10
5711;DHT22;61291;52.524;13.422;2022-08-01T15:11:52;26.10;82.70
5711;DHT22;61291;52.524;13.422;2022-08-01T15:14:17;26.20;82.60
5711;DHT22;61291;52.524;13.422;2022-08-01T15:17:01;26.60;81.50
5711;DHT22;61291;52.524;13.422;2022-08-01T15:19:27;26.60;81.10
5711;DHT22;61291;52.524;13.422;2022-08-01T15:21:53;26.70;80.70
5711;DHT22;61291;52.524;13.422;2022-08-01T15:24:18;26.60;79.70
5711;DHT22;61291;52.524;13.422;2022-08-01T15:26:44;26.90;79.00
5711;DHT22;61291;52.524;13.422;2022-08-01T15:29:09;26.90;77.70
5711;DHT22;61291;52.524;13.422;2022-08-01T15:31:34;27.10;77.30
5711;DHT22;61291;52.524;13.422;2022-08-01T15:34:00;27.00;76.50
5711;DHT22;61291;52.524;13.422;2022-08-01T15:36:25;26.70;76.60
5711;DHT22;61291;52.524;13.422;2022-08-01T15:38:51;26.50;76.30
5711;DHT22;61291;52.524;13.422;2022-08-01T15:41:17;26.20;76.80
5711;DHT22;61291;52.524;13.422;2022-08-01T15:43:42;25.90;77.40
5711;DHT22;61291;52.524;13.422;2022-08-01T15:46:08;25.70;78.00
5711;DHT22;61291;52.524;13.422;2022-08-01T15:48:33;25.30;78.50
5711;DHT22;61291;52.524;13.422;2022-08-01T15:50:59;25.30;78.50
5711;DHT22;61291;52.524;13.422;2022-08-01T15:53:24;25.30;78.50
5711;DHT22;61291;52.524;13.422;2022-08-01T15:55:50;25.40;78.50
5711;DHT22;61291;52.524;13.422;2022-08-01T15:58:15;25.40;78.60
5711;DHT22;61291;52.524;13.422;2022-08-01T16:00:41;25.50;78.70